Time;durP1;ratioP1;P1;durP2;ratioP2;P2;SDS_P1;SDS_P2;PMS_P1;PMS_P2;Temp;Humidity;BMP_temperature;BMP_pressure;BME280_temperature;BME280_humidity;BME280_pressure;Samples;Min_cycle;Max_cycle;Signal;HPM_P1;HPM_P2
2022/04/08 00:01:24;;;;;;;24.77;17.20;;;12.90;90.40;;;;;;4982843;28;20823;-78
2022/04/08 00:03:53;;;;;;;23.50;16.10;;;12.90;90.40;;;;;;4982817;28;20208;-78
2022/04/08 00:06:23;;;;;;;21.50;14.33;;;12.90;90.30;;;;;;4983044;28;20202;-77
2022/04/08 00:08:52;;;;;;;24.00;15.70;;;12.90;90.30;;;;;;4981645;28;20212;-79
2022/04/08 00:11:20;;;;;;;24.20;15.37;;;12.90;90.30;;;;;;4982111;28;20262;-78
2022/04/08 00:13:51;;;;;;;23.90;14.93;;;12.90;90.30;;;;;;4983438;28;20212;-77
2022/04/08 00:16:20;;;;;;;22.10;15.30;;;12.90;90.20;;;;;;4984224;28;20193;-78
2022/04/08 00:18:49;;;;;;;23.33;15.53;;;12.90;90.20;;;;;;4986505;28;20197;-79
2022/04/08 00:21:17;;;;;;;23.70;14.70;;;12.90;90.30;;;;;;4986556;28;20240;-79
2022/04/08 00:23:47;;;;;;;25.83;15.33;;;12.90;90.30;;;;;;4985962;28;20855;-79
2022/04/08 00:26:15;;;;;;;23.80;15.90;;;12.90;90.40;;;;;;4986150;28;20201;-79
2022/04/08 00:28:45;;;;;;;25.17;16.60;;;12.80;90.40;;;;;;4984911;28;20205;-79
2022/04/08 00:31:14;;;;;;;26.73;17.07;;;12.80;90.50;;;;;;4987430;28;20205;-78
2022/04/08 00:33:42;;;;;;;25.67;15.93;;;12.80;90.50;;;;;;4986396;28;20223;-78
2022/04/08 00:36:10;;;;;;;26.13;16.90;;;12.80;90.40;;;;;;4985083;28;20204;-78
2022/04/08 00:38:39;;;;;;;26.80;17.87;;;12.80;90.50;;;;;;4985189;28;21908;-78
2022/04/08 00:41:08;;;;;;;29.77;17.73;;;12.70;90.50;;;;;;4984643;28;20213;-78
2022/04/08 00:43:38;;;;;;;30.10;18.30;;;12.80;90.50;;;;;;4987314;28;20746;-78
2022/04/08 00:46:07;;;;;;;28.20;16.87;;;12.70;90.40;;;;;;4984860;28;20209;-77
2022/04/08 00:48:37;;;;;;;30.67;18.90;;;12.80;90.40;;;;;;4985296;28;20201;-78
2022/04/08 00:51:06;;;;;;;27.73;17.77;;;12.70;90.40;;;;;;4986356;28;20844;-78
2022/04/08 00:53:37;;;;;;;27.93;17.20;;;12.80;90.50;;;;;;4985992;28;20613;-78
2022/04/08 00:56:06;;;;;;;29.97;18.13;;;12.80;90.40;;;;;;4984683;28;20193;-77
2022/04/08 00:58:37;;;;;;;30.67;17.93;;;12.70;90.50;;;;;;4984484;28;20216;-78
2022/04/08 01:01:06;;;;;;;29.77;17.90;;;12.70;90.60;;;;;;4987219;28;20192;-78
2022/04/08 01:03:34;;;;;;;32.33;19.90;;;12.70;90.50;;;;;;4985899;28;20212;-78
2022/04/08 01:06:03;;;;;;;32.37;18.40;;;12.60;90.60;;;;;;4985007;28;20201;-79
2022/04/08 01:08:34;;;;;;;26.70;17.03;;;12.60;90.50;;;;;;4984016;28;20354;-80
2022/04/08 01:11:03;;;;;;;33.10;19.57;;;12.60;90.60;;;;;;4984826;28;20715;-78
2022/04/08 01:13:32;;;;;;;29.20;19.00;;;12.60;90.70;;;;;;4985007;28;20208;-80
2022/04/08 01:16:01;;;;;;;31.97;19.27;;;12.60;90.80;;;;;;4986503;28;20248;-79
2022/04/08 01:18:30;;;;;;;27.43;17.63;;;12.50;90.90;;;;;;4985727;28;20197;-78
2022/04/08 01:20:58;;;;;;;29.93;19.50;;;12.50;90.90;;;;;;4985428;28;20237;-79
2022/04/08 01:23:29;;;;;;;30.70;19.30;;;12.50;91.00;;;;;;4985062;28;20197;-79
2022/04/08 01:25:59;;;;;;;29.97;17.63;;;12.40;91.00;;;;;;4983901;28;21054;-78
2022/04/08 01:28:28;;;;;;;31.43;19.20;;;12.40;91.00;;;;;;4983857;28;20494;-78
2022/04/08 01:30:56;;;;;;;30.33;19.10;;;12.40;91.00;;;;;;4985331;28;20208;-79
2022/04/08 01:33:24;;;;;;;27.83;18.93;;;12.30;91.00;;;;;;4984781;28;20240;-78
2022/04/08 01:35:53;;;;;;;29.37;18.23;;;12.30;91.00;;;;;;4983994;28;20300;-78
2022/04/08 01:38:21;;;;;;;29.63;19.10;;;12.20;91.20;;;;;;4984867;28;20200;-78
2022/04/08 01:40:50;;;;;;;26.90;17.10;;;12.20;91.20;;;;;;4984178;28;20559;-77
2022/04/08 01:43:19;;;;;;;29.37;19.13;;;12.20;91.20;;;;;;4984177;28;20204;-78
2022/04/08 01:45:48;;;;;;;30.10;18.27;;;12.20;91.20;;;;;;4985087;28;20211;-79
2022/04/08 01:48:17;;;;;;;28.97;19.03;;;12.20;91.10;;;;;;4983568;28;20205;-79
2022/04/08 01:50:45;;;;;;;28.77;18.13;;;12.10;91.20;;;;;;4985875;28;20655;-78
2022/04/08 01:53:15;;;;;;;30.60;18.33;;;12.10;91.40;;;;;;4984514;28;20219;-80
2022/04/08 01:55:46;;;;;;;32.93;19.70;;;12.10;91.30;;;;;;4983251;28;20200;-78
2022/04/08 01:58:15;;;;;;;30.90;18.07;;;12.00;91.30;;;;;;4983070;28;20189;-79
2022/04/08 02:00:45;;;;;;;30.33;17.30;;;12.00;91.30;;;;;;4984506;28;20231;-77
2022/04/08 02:03:15;;;;;;;31.77;19.37;;;12.00;91.40;;;;;;4983586;28;20197;-80
2022/04/08 02:05:44;;;;;;;35.93;18.33;;;11.90;91.50;;;;;;4985132;28;20207;-79
2022/04/08 02:08:12;;;;;;;31.53;18.13;;;11.90;91.40;;;;;;4985235;28;20211;-79
2022/04/08 02:10:40;;;;;;;28.13;18.47;;;11.90;91.40;;;;;;4983040;28;20232;-79
2022/04/08 02:13:09;;;;;;;27.70;17.23;;;11.90;91.50;;;;;;4984468;28;20221;-79
2022/04/08 02:15:39;;;;;;;36.17;17.83;;;11.90;91.40;;;;;;4984619;28;20200;-78
2022/04/08 02:18:08;;;;;;;32.13;17.47;;;11.90;91.40;;;;;;4984596;28;20235;-80
2022/04/08 02:20:37;;;;;;;27.33;17.07;;;11.90;91.20;;;;;;4984077;28;20224;-79
2022/04/08 02:23:06;;;;;;;29.90;18.13;;;12.00;91.20;;;;;;4985118;28;20196;-80
2022/04/08 02:25:35;;;;;;;33.70;17.47;;;12.00;91.20;;;;;;4985000;28;20201;-79
2022/04/08 02:28:04;;;;;;;28.97;16.70;;;12.00;91.10;;;;;;4984380;28;20200;-79
2022/04/08 02:30:34;;;;;;;27.90;16.40;;;12.00;91.10;;;;;;4985128;28;20204;-78
2022/04/08 02:33:04;;;;;;;25.97;16.53;;;12.00;91.00;;;;;;4984983;28;20217;-79
2022/04/08 02:35:34;;;;;;;26.97;16.43;;;12.00;91.00;;;;;;4985706;28;20605;-80
2022/04/08 02:38:02;;;;;;;25.47;16.47;;;12.00;90.90;;;;;;4985939;28;20201;-80
2022/04/08 02:40:30;;;;;;;30.17;15.93;;;12.00;90.90;;;;;;4982140;28;20648;-79
2022/04/08 02:42:59;;;;;;;26.30;16.27;;;12.00;90.80;;;;;;4985651;28;20203;-79
2022/04/08 02:45:27;;;;;;;23.37;15.57;;;12.00;90.70;;;;;;4985155;28;20211;-79
2022/04/08 02:47:55;;;;;;;30.67;15.67;;;12.00;90.70;;;;;;4982230;28;20768;-80
2022/04/08 02:50:24;;;;;;;25.93;15.90;;;12.00;90.60;;;;;;4984459;28;20574;-79
2022/04/08 02:52:53;;;;;;;23.77;15.07;;;12.00;90.60;;;;;;4984344;28;20220;-79
2022/04/08 02:55:22;;;;;;;30.10;15.63;;;12.00;90.60;;;;;;4982809;28;20215;-79
2022/04/08 02:57:50;;;;;;;23.57;15.20;;;12.00;90.50;;;;;;4982030;28;20659;-79
2022/04/08 03:00:21;;;;;;;23.03;14.17;;;12.00;90.60;;;;;;4983273;28;20886;-78
2022/04/08 03:02:50;;;;;;;26.43;14.30;;;12.00;90.50;;;;;;4981567;28;20193;-79
2022/04/08 03:05:19;;;;;;;20.77;14.13;;;12.00;90.60;;;;;;4983960;28;20284;-78
2022/04/08 03:07:47;;;;;;;21.80;13.93;;;12.00;90.50;;;;;;4984848;28;20207;-78
2022/04/08 03:10:17;;;;;;;26.60;15.00;;;12.00;90.50;;;;;;4984060;28;20200;-79
2022/04/08 03:12:45;;;;;;;23.53;14.20;;;12.00;90.50;;;;;;4983072;28;22193;-79
2022/04/08 03:15:14;;;;;;;24.13;15.00;;;12.00;90.50;;;;;;4983741;28;20205;-79
2022/04/08 03:17:42;;;;;;;24.03;14.20;;;12.00;90.40;;;;;;4982586;28;20200;-79
2022/04/08 03:20:11;;;;;;;22.80;14.27;;;12.00;90.40;;;;;;4983369;28;20208;-80
2022/04/08 03:22:40;;;;;;;24.40;13.80;;;12.00;90.30;;;;;;4983923;28;20199;-80
2022/04/08 03:25:09;;;;;;;24.33;14.90;;;12.00;90.30;;;;;;4983086;28;21009;-79
2022/04/08 03:27:39;;;;;;;28.00;15.30;;;12.00;90.20;;;;;;4982749;28;20256;-79
2022/04/08 03:30:08;;;;;;;26.47;14.03;;;12.00;90.20;;;;;;4983006;28;20197;-80
2022/04/08 03:32:36;;;;;;;24.53;14.57;;;12.00;90.10;;;;;;4982939;28;20231;-79
2022/04/08 03:35:06;;;;;;;25.70;15.73;;;12.00;90.10;;;;;;4984328;28;20205;-79
2022/04/08 03:37:34;;;;;;;25.43;14.43;;;12.00;90.10;;;;;;4982063;28;20914;-79
2022/04/08 03:40:03;;;;;;;25.27;15.40;;;12.00;90.20;;;;;;4983167;28;20211;-79
2022/04/08 03:42:31;;;;;;;23.37;13.97;;;12.00;90.20;;;;;;4982568;28;20205;-79
2022/04/08 03:45:01;;;;;;;23.50;13.80;;;11.90;90.20;;;;;;4982923;28;20214;-78
2022/04/08 03:47:29;;;;;;;26.43;13.77;;;11.90;90.30;;;;;;4983464;28;20201;-78
2022/04/08 03:49:58;;;;;;;27.10;14.83;;;11.80;90.40;;;;;;4982940;28;20748;-76
2022/04/08 03:52:32;;;;;;;22.93;12.93;;;11.80;90.40;;;;;;4987401;28;20228;-77
2022/04/08 03:55:01;;;;;;;24.03;13.63;;;11.80;90.40;;;;;;4987214;28;20281;-77
2022/04/08 03:57:29;;;;;;;24.73;12.83;;;11.80;90.40;;;;;;4989505;28;20205;-77
2022/04/08 03:59:58;;;;;;;18.00;11.90;;;11.70;90.30;;;;;;4988476;28;20204;-77
2022/04/08 04:02:28;;;;;;;20.83;12.50;;;11.70;90.30;;;;;;4985148;28;20205;-77
2022/04/08 04:04:59;;;;;;;22.10;13.33;;;11.60;90.30;;;;;;4986873;28;20203;-78
2022/04/08 04:07:28;;;;;;;20.40;12.10;;;11.70;90.40;;;;;;4987755;28;20816;-78
2022/04/08 04:09:56;;;;;;;22.43;12.80;;;11.60;90.30;;;;;;4986680;28;20659;-77
2022/04/08 04:12:26;;;;;;;25.30;13.33;;;11.60;90.30;;;;;;4987109;28;20192;-78
2022/04/08 04:14:55;;;;;;;21.40;13.37;;;11.60;90.30;;;;;;4986007;28;20216;-77
2022/04/08 04:17:23;;;;;;;21.43;12.77;;;11.60;90.30;;;;;;4986598;28;20205;-77
2022/04/08 04:19:53;;;;;;;23.57;13.20;;;11.60;90.20;;;;;;4985576;28;20201;-78
2022/04/08 04:22:21;;;;;;;22.40;12.33;;;11.60;90.20;;;;;;4985194;28;20328;-77
2022/04/08 04:24:50;;;;;;;25.40;13.23;;;11.60;90.20;;;;;;4985919;28;20226;-77
2022/04/08 04:27:18;;;;;;;23.17;13.10;;;11.60;90.30;;;;;;4987421;28;20197;-77
2022/04/08 04:29:46;;;;;;;22.73;12.73;;;11.60;90.20;;;;;;4987253;28;20213;-79
2022/04/08 04:32:17;;;;;;;18.90;12.17;;;11.70;90.20;;;;;;4987107;28;20220;-77
2022/04/08 04:34:45;;;;;;;20.00;12.10;;;11.70;90.20;;;;;;4986933;28;20213;-78
2022/04/08 04:37:15;;;;;;;22.77;12.10;;;11.70;90.20;;;;;;4986666;28;20220;-76
2022/04/08 04:39:43;;;;;;;22.07;13.07;;;11.80;90.20;;;;;;4987190;28;20208;-77
2022/04/08 04:42:12;;;;;;;19.67;11.83;;;11.80;90.20;;;;;;4987012;28;20204;-77
2022/04/08 04:44:40;;;;;;;20.67;11.73;;;11.80;90.20;;;;;;4987255;28;20199;-78
2022/04/08 04:47:09;;;;;;;19.77;12.90;;;11.80;90.20;;;;;;4985928;28;20201;-76
2022/04/08 04:49:37;;;;;;;23.60;12.27;;;11.90;90.20;;;;;;4986388;28;20209;-78
2022/04/08 04:52:06;;;;;;;18.43;12.17;;;11.90;90.20;;;;;;4985720;28;20205;-76
2022/04/08 04:54:36;;;;;;;21.33;11.90;;;11.90;90.20;;;;;;4986732;28;20225;-78
2022/04/08 04:57:05;;;;;;;18.37;11.70;;;12.00;90.10;;;;;;4985831;28;20197;-78
2022/04/08 04:59:34;;;;;;;21.10;12.30;;;12.00;90.10;;;;;;4986248;28;20197;-78
2022/04/08 05:02:02;;;;;;;19.13;11.83;;;12.00;90.10;;;;;;4986122;28;20205;-78
2022/04/08 05:04:31;;;;;;;18.37;10.93;;;12.10;90.10;;;;;;4985041;28;20276;-77
2022/04/08 05:07:00;;;;;;;21.17;11.90;;;12.00;90.00;;;;;;4986908;28;20197;-78
2022/04/08 05:09:28;;;;;;;23.17;11.87;;;12.10;90.00;;;;;;4984730;28;20202;-78
2022/04/08 05:11:58;;;;;;;16.73;10.77;;;12.10;89.80;;;;;;4987024;28;20212;-79
2022/04/08 05:14:26;;;;;;;15.90;10.27;;;12.10;89.50;;;;;;4985839;28;20217;-77
2022/04/08 05:16:55;;;;;;;20.17;11.07;;;12.10;89.40;;;;;;4985204;28;20201;-78
2022/04/08 05:19:24;;;;;;;16.50;10.87;;;12.20;89.30;;;;;;4986691;28;20204;-79
2022/04/08 05:21:53;;;;;;;16.57;9.93;;;12.20;89.30;;;;;;4982007;28;21289;-78
2022/04/08 05:24:21;;;;;;;15.33;10.07;;;12.20;89.20;;;;;;4984994;28;20204;-78
2022/04/08 05:26:50;;;;;;;20.23;10.70;;;12.30;89.10;;;;;;4984870;28;20205;-78
2022/04/08 05:29:20;;;;;;;19.67;10.73;;;12.30;89.00;;;;;;4986405;28;20215;-77
2022/04/08 05:31:48;;;;;;;18.97;11.47;;;12.40;88.90;;;;;;4985637;28;20193;-79
2022/04/08 05:34:17;;;;;;;19.03;10.40;;;12.40;89.00;;;;;;4985037;28;20244;-78
2022/04/08 05:36:46;;;;;;;18.50;10.63;;;12.50;89.10;;;;;;4985122;28;20204;-79
2022/04/08 05:39:14;;;;;;;18.80;10.53;;;12.50;88.90;;;;;;4985917;28;20193;-78
2022/04/08 05:41:42;;;;;;;19.97;10.50;;;12.50;88.80;;;;;;4985205;28;20204;-78
2022/04/08 05:44:11;;;;;;;16.67;10.00;;;12.50;88.80;;;;;;4986006;28;20193;-78
2022/04/08 05:46:41;;;;;;;23.73;10.57;;;12.50;88.60;;;;;;4983043;28;21097;-78
2022/04/08 05:49:09;;;;;;;19.53;10.77;;;12.50;88.60;;;;;;4985450;28;20899;-77
2022/04/08 05:51:38;;;;;;;17.30;10.37;;;12.60;88.90;;;;;;4986792;28;20212;-78
2022/04/08 05:54:09;;;;;;;24.93;10.60;;;12.60;89.10;;;;;;4985081;28;20532;-79
2022/04/08 05:56:38;;;;;;;16.17;9.63;;;12.70;89.20;;;;;;4987351;28;20204;-77
2022/04/08 05:59:07;;;;;;;18.57;9.67;;;12.80;89.20;;;;;;4984857;28;20220;-77
2022/04/08 06:01:35;;;;;;;19.30;8.73;;;12.90;89.00;;;;;;4985080;28;20754;-78
2022/04/08 06:04:08;;;;;;;19.37;10.03;;;13.00;89.00;;;;;;4984868;28;20228;-78
2022/04/08 06:06:38;;;;;;;15.83;10.10;;;13.10;88.80;;;;;;4984432;28;20197;-77
2022/04/08 06:09:07;;;;;;;17.57;9.27;;;13.20;88.60;;;;;;4985743;28;20205;-79
2022/04/08 06:11:35;;;;;;;15.73;9.90;;;13.30;88.80;;;;;;4987440;28;20201;-78
2022/04/08 06:14:04;;;;;;;14.97;8.70;;;13.40;88.50;;;;;;4985783;28;20841;-77
2022/04/08 06:16:37;;;;;;;15.90;9.07;;;13.50;88.00;;;;;;4987095;28;20881;-76
2022/04/08 06:19:08;;;;;;;13.63;8.87;;;13.50;87.70;;;;;;4985377;28;20196;-78
2022/04/08 06:21:37;;;;;;;12.13;8.00;;;13.60;87.50;;;;;;4986207;28;20228;-80
2022/04/08 06:24:06;;;;;;;14.43;8.33;;;13.60;87.30;;;;;;4984099;28;20829;-79
2022/04/08 06:26:36;;;;;;;15.90;8.67;;;13.70;87.10;;;;;;4985686;28;20229;-78
2022/04/08 06:29:04;;;;;;;16.73;8.67;;;13.70;87.00;;;;;;4985492;28;20196;-78
2022/04/08 06:31:33;;;;;;;16.87;8.87;;;13.80;87.00;;;;;;4985268;28;20205;-78
2022/04/08 06:34:02;;;;;;;11.63;7.10;;;14.00;87.10;;;;;;4983183;28;20260;-78
2022/04/08 06:36:32;;;;;;;15.20;7.97;;;14.10;86.40;;;;;;4983690;28;20193;-79
2022/04/08 06:39:00;;;;;;;16.37;8.03;;;14.20;85.20;;;;;;4985409;28;20212;-78
2022/04/08 06:41:29;;;;;;;18.80;7.73;;;14.40;84.70;;;;;;4986113;28;20879;-79
2022/04/08 06:43:58;;;;;;;13.53;7.50;;;14.50;84.90;;;;;;4982452;28;20193;-78
2022/04/08 06:46:27;;;;;;;15.67;8.37;;;14.70;84.10;;;;;;4983641;28;20181;-79
2022/04/08 06:49:02;;;;;;;11.20;7.50;;;14.80;83.60;;;;;;4983670;28;20193;-80
2022/04/08 06:51:32;;;;;;;17.27;7.27;;;14.90;83.10;;;;;;4982971;28;20200;-79
2022/04/08 06:54:01;;;;;;;12.70;6.57;;;15.00;81.60;;;;;;4983114;28;20863;-78
2022/04/08 06:56:29;;;;;;;16.60;7.47;;;15.10;81.40;;;;;;4983966;28;20860;-78
2022/04/08 06:58:57;;;;;;;15.17;8.13;;;15.20;81.60;;;;;;4983868;28;20204;-80
2022/04/08 07:01:26;;;;;;;13.50;7.18;;;15.30;80.10;;;;;;4982526;28;21186;-80
2022/04/08 07:03:55;;;;;;;9.70;5.70;;;15.50;80.20;;;;;;4982713;28;20197;-78
2022/04/08 07:06:23;;;;;;;9.53;5.73;;;15.60;79.20;;;;;;4981584;28;20287;-79
2022/04/08 07:08:53;;;;;;;12.03;5.63;;;15.70;78.60;;;;;;4982019;28;20205;-81
2022/04/08 07:11:22;;;;;;;8.83;5.83;;;15.80;78.10;;;;;;4981404;28;20197;-78
2022/04/08 07:13:51;;;;;;;14.70;6.13;;;15.90;78.20;;;;;;4981747;28;20209;-79
2022/04/08 07:16:20;;;;;;;15.40;6.47;;;16.00;77.50;;;;;;4982584;28;20946;-80
2022/04/08 07:18:49;;;;;;;12.00;5.93;;;16.20;77.90;;;;;;4980769;28;20212;-79
2022/04/08 07:21:17;;;;;;;8.20;5.10;;;16.30;77.50;;;;;;4981277;28;20738;-82
2022/04/08 07:23:46;;;;;;;9.77;5.90;;;16.40;76.80;;;;;;4980253;28;20216;-86
2022/04/08 07:26:18;;;;;;;8.10;5.13;;;16.50;75.90;;;;;;4985420;28;20312;-82
2022/04/08 07:28:46;;;;;;;10.00;4.63;;;16.60;75.50;;;;;;4985276;28;20200;-81
2022/04/08 07:31:14;;;;;;;9.00;4.57;;;16.80;74.80;;;;;;4985697;28;20205;-81
2022/04/08 07:33:43;;;;;;;9.60;5.37;;;17.00;75.10;;;;;;4985793;28;20197;-79
2022/04/08 07:36:12;;;;;;;10.73;5.60;;;17.10;75.00;;;;;;4985310;28;20921;-82
2022/04/08 07:38:40;;;;;;;8.87;5.73;;;17.20;73.20;;;;;;4986286;28;20296;-77
2022/04/08 07:41:09;;;;;;;9.00;5.50;;;17.20;73.30;;;;;;4986588;28;20205;-79
2022/04/08 07:43:38;;;;;;;7.77;4.60;;;17.40;73.90;;;;;;4986320;28;20209;-80
2022/04/08 07:46:07;;;;;;;14.13;5.13;;;17.50;73.50;;;;;;4984517;28;20215;-80
2022/04/08 07:48:35;;;;;;;8.13;4.97;;;17.60;73.30;;;;;;4985087;28;20201;-78
2022/04/08 07:51:04;;;;;;;10.93;5.03;;;17.80;72.90;;;;;;4985359;28;20206;-80
2022/04/08 07:53:33;;;;;;;8.40;4.60;;;17.80;71.10;;;;;;4985155;28;20686;-79
2022/04/08 07:56:01;;;;;;;7.57;4.33;;;17.90;71.50;;;;;;4985654;28;20216;-76
2022/04/08 07:58:30;;;;;;;7.00;4.07;;;17.90;69.30;;;;;;4986351;28;20201;-79
2022/04/08 08:01:00;;;;;;;6.80;3.10;;;18.10;69.90;;;;;;4987036;28;20204;-78
2022/04/08 08:03:28;;;;;;;11.27;2.93;;;18.20;69.10;;;;;;4987312;28;20255;-77
2022/04/08 08:05:56;;;;;;;3.57;2.00;;;18.30;65.70;;;;;;4986556;28;20220;-77
2022/04/08 08:08:25;;;;;;;4.13;2.13;;;18.30;65.30;;;;;;4987081;28;20243;-77
2022/04/08 08:10:54;;;;;;;5.07;2.60;;;18.40;64.60;;;;;;4986431;28;20236;-79
2022/04/08 08:13:23;;;;;;;6.73;2.83;;;18.50;65.40;;;;;;4984802;28;20770;-80
2022/04/08 08:15:51;;;;;;;5.47;3.10;;;18.60;65.30;;;;;;4985732;28;20851;-78
2022/04/08 08:18:22;;;;;;;7.47;2.90;;;18.80;65.50;;;;;;4985709;28;20200;-79
2022/04/08 08:20:50;;;;;;;5.27;3.00;;;18.90;66.30;;;;;;4984612;28;20231;-79
2022/04/08 08:23:18;;;;;;;9.03;2.90;;;19.00;66.00;;;;;;4984055;28;20216;-79
2022/04/08 08:25:47;;;;;;;8.47;2.90;;;19.10;64.60;;;;;;4984839;28;20197;-78
2022/04/08 08:28:23;;;;;;;4.00;2.63;;;19.20;65.00;;;;;;4984940;28;20276;-78
2022/04/08 08:30:51;;;;;;;5.63;2.60;;;19.30;64.40;;;;;;4984734;28;20715;-76
2022/04/08 08:33:21;;;;;;;5.07;2.50;;;19.40;64.00;;;;;;4986900;28;20675;-78
2022/04/08 08:35:49;;;;;;;6.40;2.50;;;19.50;64.70;;;;;;4986154;28;20224;-77
2022/04/08 08:38:18;;;;;;;5.57;2.37;;;19.50;64.30;;;;;;4985219;28;20194;-79
2022/04/08 08:40:48;;;;;;;5.17;3.20;;;19.60;64.20;;;;;;4986147;28;20201;-77
2022/04/08 08:43:18;;;;;;;8.37;2.80;;;19.70;63.00;;;;;;4985724;28;20204;-77
2022/04/08 08:45:50;;;;;;;4.33;2.53;;;19.70;62.30;;;;;;4983985;28;20269;-77
2022/04/08 08:48:25;;;;;;;10.40;2.60;;;19.80;62.60;;;;;;4984377;28;20452;-78
2022/04/08 08:51:01;;;;;;;3.53;2.30;;;19.90;63.50;;;;;;4985470;28;20230;-77
2022/04/08 08:53:31;;;;;;;7.70;2.70;;;20.00;63.10;;;;;;4985078;28;20200;-77
2022/04/08 08:55:59;;;;;;;5.13;2.90;;;20.10;63.30;;;;;;4985143;28;20205;-80
2022/04/08 08:58:30;;;;;;;6.63;2.30;;;20.20;61.80;;;;;;4985311;28;20783;-78
2022/04/08 09:00:58;;;;;;;7.63;2.33;;;20.20;60.30;;;;;;4984531;28;20205;-76
2022/04/08 09:03:29;;;;;;;5.27;2.30;;;20.30;61.10;;;;;;4985239;28;20204;-79
2022/04/08 09:06:06;;;;;;;4.27;2.40;;;20.40;60.80;;;;;;4983726;28;20197;-76
2022/04/08 09:08:36;;;;;;;3.87;2.30;;;20.50;60.30;;;;;;4984569;28;21026;-76
2022/04/08 09:11:05;;;;;;;4.37;2.37;;;20.60;59.30;;;;;;4984461;28;20279;-76
2022/04/08 09:13:44;;;;;;;4.63;1.90;;;20.70;59.40;;;;;;4985668;28;20205;-79
2022/04/08 09:16:13;;;;;;;3.20;1.80;;;20.80;59.40;;;;;;4985241;28;20208;-75
2022/04/08 09:18:49;;;;;;;3.90;1.98;;;20.90;60.00;;;;;;4982166;28;20204;-76
2022/04/08 09:21:23;;;;;;;2.53;1.58;;;21.00;59.30;;;;;;4983629;28;20347;-77
2022/04/08 09:23:51;;;;;;;4.33;2.00;;;21.10;58.40;;;;;;4983003;28;20200;-79
2022/04/08 09:26:22;;;;;;;5.85;2.05;;;21.10;57.40;;;;;;4985017;28;20193;-79
2022/04/08 09:28:56;;;;;;;4.95;1.92;;;21.10;57.30;;;;;;4983637;28;20193;-79
2022/04/08 09:31:25;;;;;;;9.15;1.60;;;21.20;57.00;;;;;;4982858;28;20199;-78
2022/04/08 09:33:54;;;;;;;7.10;1.65;;;21.40;57.90;;;;;;4983758;28;20201;-78
2022/04/08 09:36:30;;;;;;;7.75;1.58;;;21.50;57.80;;;;;;4985419;28;20220;-77
2022/04/08 09:38:59;;;;;;;8.40;2.00;;;21.60;56.50;;;;;;4982909;28;20435;-78
2022/04/08 09:41:42;;;;;;;2.83;1.50;;;21.60;55.60;;;;;;4984390;28;20205;-74
2022/04/08 09:44:12;;;;;;;4.88;1.52;;;21.70;55.00;;;;;;4981110;28;20203;-78
2022/04/08 09:46:41;;;;;;;6.05;1.50;;;21.70;54.40;;;;;;4982282;28;20189;-78
2022/04/08 09:49:11;;;;;;;3.83;1.67;;;21.70;53.00;;;;;;4980866;28;20212;-76
2022/04/08 09:51:41;;;;;;;2.80;1.50;;;21.80;53.60;;;;;;4983235;28;20205;-80
2022/04/08 09:54:12;;;;;;;5.53;1.45;;;21.90;54.00;;;;;;4981460;28;20197;-80
2022/04/08 09:56:44;;;;;;;2.28;1.40;;;21.90;53.50;;;;;;4982921;28;20208;-77
2022/04/08 09:59:14;;;;;;;2.92;1.23;;;22.00;52.90;;;;;;4983366;28;20209;-78
2022/04/08 10:02:03;;;;;;;2.17;1.20;;;22.10;51.90;;;;;;4983236;28;20197;-78
2022/04/08 10:04:34;;;;;;;5.28;1.50;;;22.10;53.10;;;;;;4982154;28;20226;-76
2022/04/08 10:07:05;;;;;;;4.47;2.20;;;22.20;53.40;;;;;;4985647;28;20227;-78
2022/04/08 10:09:49;;;;;;;3.05;1.50;;;22.20;52.60;;;;;;4983595;28;20204;-77
2022/04/08 10:12:30;;;;;;;3.28;1.33;;;22.30;53.40;;;;;;4984024;28;20205;-80
2022/04/08 10:15:08;;;;;;;3.78;1.63;;;22.40;52.60;;;;;;4983973;28;20812;-80
2022/04/08 10:17:36;;;;;;;3.92;1.30;;;22.40;53.10;;;;;;4982508;28;20212;-80
2022/04/08 10:20:20;;;;;;;2.22;1.55;;;22.50;53.10;;;;;;4982535;28;20201;-77
2022/04/08 10:22:49;;;;;;;4.32;1.77;;;22.50;53.30;;;;;;4981925;28;21174;-75
2022/04/08 10:25:19;;;;;;;3.42;1.50;;;22.60;53.60;;;;;;4982554;28;20205;-78
2022/04/08 10:27:47;;;;;;;4.43;1.50;;;22.60;52.90;;;;;;4982748;28;20203;-77
2022/04/08 10:30:22;;;;;;;6.43;1.58;;;22.60;51.80;;;;;;4983624;28;20200;-77
2022/04/08 10:32:59;;;;;;;3.75;1.73;;;22.70;52.60;;;;;;4983105;28;20189;-78
2022/04/08 10:35:29;;;;;;;3.67;2.00;;;22.80;52.30;;;;;;4983679;28;20210;-76
2022/04/08 10:37:59;;;;;;;3.50;1.70;;;22.80;52.40;;;;;;4982243;28;20209;-78
2022/04/08 10:40:32;;;;;;;2.92;1.63;;;22.90;51.70;;;;;;4982470;28;20201;-79
2022/04/08 10:43:02;;;;;;;3.83;1.30;;;22.90;50.20;;;;;;4983766;28;20204;-77
2022/04/08 10:45:30;;;;;;;2.58;1.60;;;22.90;50.30;;;;;;4983542;28;20303;-77
2022/04/08 10:48:02;;;;;;;11.63;2.03;;;23.00;50.70;;;;;;4982437;28;20225;-77
2022/04/08 10:50:35;;;;;;;2.13;1.15;;;23.00;50.60;;;;;;4981738;28;20201;-77
2022/04/08 10:53:06;;;;;;;7.07;1.83;;;23.10;50.20;;;;;;4982924;28;20215;-79
2022/04/08 10:55:50;;;;;;;3.10;1.65;;;23.20;50.90;;;;;;4983118;28;20821;-79
2022/04/08 10:58:34;;;;;;;6.20;1.65;;;23.20;50.00;;;;;;4981969;28;20316;-77
2022/04/08 11:01:14;;;;;;;4.72;1.88;;;23.30;50.60;;;;;;4981820;28;20505;-77
2022/04/08 11:03:53;;;;;;;3.60;1.30;;;23.40;50.80;;;;;;4981683;28;20232;-76
2022/04/08 11:06:27;;;;;;;4.85;1.60;;;23.40;50.10;;;;;;4981857;28;20200;-76
2022/04/08 11:08:56;;;;;;;3.75;1.40;;;23.40;48.40;;;;;;4980814;28;20201;-79
2022/04/08 11:11:29;;;;;;;2.83;1.40;;;23.50;47.70;;;;;;4982497;28;20205;-78
2022/04/08 11:13:58;;;;;;;3.50;1.50;;;23.50;47.90;;;;;;4981367;28;20205;-80
2022/04/08 11:16:29;;;;;;;5.70;1.50;;;23.50;47.50;;;;;;4982640;28;20205;-78
2022/04/08 11:18:58;;;;;;;4.00;1.42;;;23.60;48.20;;;;;;4982436;28;20212;-78
2022/04/08 11:21:30;;;;;;;2.90;1.00;;;23.60;48.20;;;;;;4981058;28;20263;-79
2022/04/08 11:24:01;;;;;;;1.98;1.15;;;23.60;48.60;;;;;;4981747;28;20189;-77
2022/04/08 11:26:30;;;;;;;8.45;1.40;;;23.70;48.10;;;;;;4983065;28;20192;-78
2022/04/08 11:29:10;;;;;;;3.88;1.65;;;23.80;48.50;;;;;;4982478;28;20201;-80
2022/04/08 11:31:39;;;;;;;4.97;1.33;;;23.80;48.20;;;;;;4981239;28;20677;-76
2022/04/08 11:34:07;;;;;;;5.53;1.98;;;24.00;48.70;;;;;;4982161;28;20193;-77
2022/04/08 11:36:38;;;;;;;2.47;1.40;;;24.10;48.80;;;;;;4981317;28;20216;-76
2022/04/08 11:39:07;;;;;;;3.65;1.33;;;24.10;48.10;;;;;;4981113;28;20197;-77
2022/04/08 11:41:38;;;;;;;3.90;1.75;;;24.20;46.70;;;;;;4981054;28;20708;-77
2022/04/08 11:44:07;;;;;;;6.32;1.73;;;24.30;47.30;;;;;;4982466;28;20288;-78
2022/04/08 11:46:36;;;;;;;3.85;1.88;;;24.30;48.10;;;;;;4982442;28;20201;-78
2022/04/08 11:49:05;;;;;;;4.40;1.92;;;24.40;48.30;;;;;;4981985;28;20204;-78
2022/04/08 11:51:34;;;;;;;6.05;1.92;;;24.40;47.70;;;;;;4981796;28;20201;-79
2022/04/08 11:54:04;;;;;;;3.33;1.30;;;24.50;48.10;;;;;;4981312;28;20234;-78
2022/04/08 11:56:33;;;;;;;8.80;1.60;;;24.50;46.30;;;;;;4980159;28;20194;-79
2022/04/08 11:59:04;;;;;;;4.13;1.73;;;24.50;46.30;;;;;;4981678;28;20221;-76
2022/04/08 12:01:34;;;;;;;5.28;2.10;;;24.50;45.50;;;;;;4981122;28;20193;-78
2022/04/08 12:04:05;;;;;;;3.88;1.67;;;24.50;45.90;;;;;;4980890;28;20678;-77
2022/04/08 12:06:40;;;;;;;3.50;2.33;;;24.50;45.20;;;;;;4981065;28;20204;-78
2022/04/08 12:09:12;;;;;;;3.25;1.80;;;24.60;45.90;;;;;;4981322;28;20192;-78
2022/04/08 12:11:42;;;;;;;3.42;1.30;;;24.60;45.50;;;;;;4982935;28;20200;-76
2022/04/08 12:14:19;;;;;;;6.35;1.80;;;24.70;44.60;;;;;;4984149;28;20202;-77
2022/04/08 12:16:51;;;;;;;7.80;2.00;;;24.70;44.70;;;;;;4983849;28;20193;-76
2022/04/08 12:19:23;;;;;;;4.85;1.70;;;24.80;45.20;;;;;;4985237;28;20209;-76
2022/04/08 12:22:02;;;;;;;5.13;1.42;;;24.90;45.00;;;;;;4984359;28;20240;-79
2022/04/08 12:24:34;;;;;;;7.22;1.63;;;24.90;43.80;;;;;;4983880;28;20208;-79
2022/04/08 12:27:10;;;;;;;6.88;1.55;;;24.90;43.70;;;;;;4984113;28;20193;-77
2022/04/08 12:29:39;;;;;;;2.22;1.48;;;25.00;43.80;;;;;;4984627;28;20201;-76
2022/04/08 12:32:14;;;;;;;4.80;1.60;;;25.10;44.00;;;;;;4984341;28;20201;-79
2022/04/08 12:34:43;;;;;;;5.05;1.95;;;25.20;42.90;;;;;;4985268;28;20259;-80
2022/04/08 12:37:11;;;;;;;2.70;1.40;;;25.20;43.90;;;;;;4984445;28;20196;-75
2022/04/08 12:39:41;;;;;;;2.40;1.10;;;25.30;43.70;;;;;;4984470;28;20718;-79
2022/04/08 12:42:10;;;;;;;4.57;1.70;;;25.30;42.40;;;;;;4984334;28;20189;-79
2022/04/08 12:44:38;;;;;;;4.50;1.30;;;25.40;42.60;;;;;;4984347;28;20297;-78
2022/04/08 12:47:07;;;;;;;5.30;1.38;;;25.50;42.80;;;;;;4984145;28;20768;-78
2022/04/08 12:49:35;;;;;;;5.32;1.35;;;25.60;42.40;;;;;;4984462;28;20220;-77